Time;durP1;ratioP1;P1;durP2;ratioP2;P2;SDS_P1;SDS_P2;PMS_P1;PMS_P2;Temp;Humidity;BMP_temperature;BMP_pressure;BME280_temperature;BME280_humidity;BME280_pressure;Samples;Min_cycle;Max_cycle;Signal;HPM_P1;HPM_P2
2022/03/08 00:00:33;;;;;;;5.68;3.10;;;2.50;75.30;;;2.58;nan;101452.25;4994308;28;20662;-66
2022/03/08 00:03:00;;;;;;;2.03;1.85;;;2.40;75.80;;;2.60;nan;101453.03;5000641;28;20214;-66
2022/03/08 00:05:27;;;;;;;4.18;3.08;;;2.40;76.50;;;2.68;nan;101445.94;4984905;28;20226;-68
2022/03/08 00:07:55;;;;;;;7.40;4.13;;;2.50;76.90;;;2.58;nan;101442.75;5012186;28;20206;-66
2022/03/08 00:10:23;;;;;;;4.22;3.30;;;2.40;77.20;;;2.69;nan;101438.16;5020185;28;20199;-66
2022/03/08 00:12:50;;;;;;;4.07;2.97;;;2.50;77.40;;;2.59;nan;101436.72;4976825;28;20237;-67
2022/03/08 00:15:24;;;;;;;3.38;2.95;;;2.40;77.70;;;2.55;nan;101439.44;5012077;28;20218;-66
2022/03/08 00:17:54;;;;;;;2.25;2.10;;;2.40;77.70;;;2.47;nan;101439.59;5004710;28;20203;-67
2022/03/08 00:20:21;;;;;;;4.22;2.95;;;2.30;77.50;;;2.41;nan;101434.63;5004307;28;20686;-66
2022/03/08 00:22:48;;;;;;;3.30;2.58;;;2.20;77.90;;;2.47;nan;101436.22;4993825;28;20203;-66
2022/03/08 00:25:16;;;;;;;6.18;3.88;;;2.30;77.70;;;2.47;nan;101439.59;4974882;28;20242;-68
2022/03/08 00:27:47;;;;;;;4.80;3.10;;;2.30;77.50;;;2.38;nan;101434.72;4994836;28;20601;-68
2022/03/08 00:30:19;;;;;;;2.75;2.35;;;2.20;78.20;;;2.34;nan;101435.69;4993775;28;20214;-66
2022/03/08 00:32:48;;;;;;;8.75;4.25;;;2.20;78.40;;;2.43;nan;101439.75;4994817;28;20230;-68
2022/03/08 00:35:15;;;;;;;9.20;4.15;;;2.20;78.50;;;2.41;nan;101431.22;5024790;28;20222;-66
2022/03/08 00:37:44;;;;;;;3.70;3.08;;;2.30;79.00;;;2.33;nan;101432.25;4998823;28;20195;-66
2022/03/08 00:40:12;;;;;;;3.72;3.28;;;2.20;79.60;;;2.29;nan;101428.06;5011799;28;20562;-69
2022/03/08 00:42:39;;;;;;;6.85;4.35;;;2.20;80.20;;;2.27;nan;101429.84;5010945;28;20213;-66
2022/03/08 00:45:08;;;;;;;6.15;4.50;;;2.10;80.30;;;2.28;nan;101425.50;5011072;28;20222;-68
2022/03/08 00:47:39;;;;;;;6.28;3.33;;;2.10;80.90;;;2.24;nan;101429.91;4993798;28;20359;-68
2022/03/08 00:50:10;;;;;;;3.35;2.55;;;2.10;81.20;;;2.20;nan;101422.28;4993859;28;20578;-66
2022/03/08 00:52:37;;;;;;;5.57;4.20;;;2.10;82.20;;;2.14;nan;101415.59;4993991;28;20238;-65
2022/03/08 00:55:07;;;;;;;8.25;4.35;;;2.00;82.90;;;2.15;nan;101417.25;5010725;28;20233;-68
2022/03/08 00:57:34;;;;;;;5.80;4.20;;;2.00;83.40;;;2.15;nan;101421.56;5009700;28;20206;-67
2022/03/08 01:00:06;;;;;;;4.90;3.08;;;2.00;82.80;;;2.12;nan;101421.66;4993761;28;20195;-67
2022/03/08 01:02:33;;;;;;;10.02;3.92;;;2.00;82.80;;;2.18;nan;101418.91;4994502;28;20210;-67
2022/03/08 01:05:00;;;;;;;5.43;3.92;;;2.00;82.90;;;2.11;nan;101410.50;5010716;28;20285;-68
2022/03/08 01:07:27;;;;;;;7.00;3.90;;;2.00;83.10;;;2.15;nan;101406.13;4993104;28;20238;-69
2022/03/08 01:09:54;;;;;;;10.30;4.55;;;2.00;82.90;;;2.14;nan;101409.56;4995535;28;20203;-68
2022/03/08 01:12:21;;;;;;;4.10;3.25;;;2.00;83.10;;;2.12;nan;101414.78;5011202;28;20206;-66
2022/03/08 01:14:48;;;;;;;4.82;3.80;;;2.00;83.40;;;2.06;nan;101406.34;4992941;28;20655;-69
2022/03/08 01:17:15;;;;;;;4.07;2.60;;;1.90;84.50;;;1.99;nan;101409.94;5011604;28;20207;-67
2022/03/08 01:19:42;;;;;;;6.18;4.45;;;1.90;86.20;;;1.95;nan;101408.34;5009457;28;20209;-67
2022/03/08 01:22:11;;;;;;;7.30;5.00;;;1.80;87.40;;;1.86;nan;101405.97;5010915;28;20663;-67
2022/03/08 01:24:39;;;;;;;6.80;4.30;;;1.70;88.70;;;1.81;nan;101395.78;4993668;28;20239;-66
2022/03/08 01:27:06;;;;;;;6.80;4.25;;;1.70;91.00;;;1.83;nan;101395.78;5011716;28;20210;-68
2022/03/08 01:29:33;;;;;;;8.40;4.80;;;1.70;92.00;;;1.73;nan;101394.28;5009971;28;20202;-66
2022/03/08 01:32:00;;;;;;;8.60;4.63;;;1.60;92.90;;;1.77;nan;101383.06;5011004;28;20206;-67
2022/03/08 01:34:27;;;;;;;6.95;4.45;;;1.60;93.40;;;1.70;nan;101389.22;5010394;28;20238;-68
2022/03/08 01:36:55;;;;;;;6.38;4.30;;;1.60;93.80;;;1.67;nan;101385.00;5011033;28;20233;-65
2022/03/08 01:39:23;;;;;;;6.78;4.40;;;1.60;94.40;;;1.56;nan;101380.09;4993067;28;20207;-68
2022/03/08 01:41:50;;;;;;;7.75;4.60;;;1.50;94.90;;;1.55;nan;101383.53;4992869;28;20282;-66
2022/03/08 01:44:19;;;;;;;5.30;4.15;;;1.40;95.30;;;1.50;nan;101371.69;5010216;28;20300;-66
2022/03/08 01:46:46;;;;;;;6.10;4.05;;;1.30;96.10;;;1.50;nan;101376.81;5009236;28;20215;-68
2022/03/08 01:49:15;;;;;;;6.88;4.53;;;1.40;96.20;;;1.41;nan;101374.47;5011188;28;20419;-67
2022/03/08 01:51:43;;;;;;;8.35;4.13;;;1.30;96.90;;;1.30;nan;101363.59;4993679;28;20233;-65
2022/03/08 01:54:10;;;;;;;4.90;3.95;;;1.20;97.30;;;1.32;nan;101366.97;4982344;28;20227;-66
2022/03/08 01:56:37;;;;;;;8.15;4.75;;;1.20;97.70;;;1.37;nan;101367.69;5008229;28;20206;-67
2022/03/08 01:59:05;;;;;;;6.80;4.05;;;1.20;97.80;;;1.27;nan;101363.66;4988538;28;20204;-67
2022/03/08 02:01:32;;;;;;;10.05;5.22;;;1.20;98.20;;;1.20;nan;101355.22;5008176;28;20210;-65
2022/03/08 02:03:59;;;;;;;6.10;4.43;;;1.10;98.70;;;1.27;nan;101354.22;5011969;28;20230;-68
2022/03/08 02:06:28;;;;;;;3.28;2.63;;;1.20;98.70;;;1.24;nan;101353.41;5011942;28;20241;-66
2022/03/08 02:08:55;;;;;;;6.18;4.15;;;1.10;99.20;;;1.20;nan;101347.50;4994032;28;20210;-68
2022/03/08 02:11:23;;;;;;;5.22;3.45;;;1.10;99.50;;;1.15;nan;101351.91;5009445;28;20202;-65
2022/03/08 02:13:50;;;;;;;5.72;3.88;;;1.00;99.90;;;1.13;nan;101358.78;4992106;28;20230;-67
2022/03/08 02:16:17;;;;;;;6.85;3.65;;;1.00;99.90;;;1.07;nan;101355.50;4992560;28;20667;-67
2022/03/08 02:18:44;;;;;;;8.43;3.65;;;1.00;99.90;;;0.96;nan;101352.34;4992759;28;20195;-68
2022/03/08 02:21:12;;;;;;;9.55;4.82;;;0.90;99.90;;;0.97;nan;101348.88;5004912;28;20198;-68
2022/03/08 02:23:39;;;;;;;9.45;5.97;;;0.90;99.90;;;0.97;nan;101349.75;4992669;28;20213;-67
2022/03/08 02:26:06;;;;;;;7.00;4.55;;;0.90;99.90;;;0.94;nan;101349.78;4992044;28;20222;-67
2022/03/08 02:28:33;;;;;;;8.70;5.15;;;0.80;99.90;;;0.84;nan;101344.88;4980922;28;20230;-67
2022/03/08 02:31:00;;;;;;;6.43;4.55;;;0.80;99.90;;;0.78;nan;101343.28;4990889;28;20361;-67
2022/03/08 02:33:27;;;;;;;9.82;5.05;;;0.70;99.90;;;0.79;nan;101327.84;4968672;28;20656;-67
2022/03/08 02:35:54;;;;;;;8.52;5.10;;;0.70;99.90;;;0.79;nan;101332.13;5014258;28;20248;-66
2022/03/08 02:38:21;;;;;;;10.95;6.47;;;0.70;99.90;;;0.70;nan;101340.03;4995831;28;20229;-68
2022/03/08 02:40:49;;;;;;;8.88;5.38;;;0.70;99.90;;;0.81;nan;101327.81;4980019;28;20206;-67
2022/03/08 02:43:17;;;;;;;8.68;5.75;;;0.70;99.90;;;0.75;nan;101338.22;4993078;28;20195;-65
2022/03/08 02:45:45;;;;;;;11.57;6.60;;;0.70;99.90;;;0.68;nan;101331.53;5000369;28;20649;-68
2022/03/08 02:48:12;;;;;;;7.15;5.53;;;0.60;99.90;;;0.61;nan;101330.81;5013202;28;20207;-67
2022/03/08 02:50:39;;;;;;;7.93;4.75;;;0.50;99.90;;;0.62;nan;101323.91;4995654;28;20667;-66
2022/03/08 02:53:06;;;;;;;9.02;4.43;;;0.60;99.90;;;0.65;nan;101326.44;5012507;28;20222;-68
2022/03/08 02:55:40;;;;;;;7.13;4.75;;;0.60;99.90;;;0.62;nan;101326.50;4997237;28;20226;-68
2022/03/08 02:58:07;;;;;;;8.30;5.07;;;0.50;99.90;;;0.62;nan;101323.91;5013218;28;20201;-68
2022/03/08 03:00:36;;;;;;;11.07;6.32;;;0.50;99.90;;;0.51;nan;101323.31;4994640;28;20956;-65
2022/03/08 03:03:05;;;;;;;7.40;5.50;;;0.40;99.90;;;0.49;nan;101327.63;4980497;28;20211;-65
2022/03/08 03:05:33;;;;;;;10.98;6.00;;;0.40;99.90;;;0.56;nan;101329.19;4995867;28;20238;-68
2022/03/08 03:08:01;;;;;;;6.95;5.25;;;0.40;99.90;;;0.55;nan;101323.22;4994238;28;20210;-68
2022/03/08 03:10:29;;;;;;;10.15;6.35;;;0.50;99.90;;;0.56;nan;101326.63;4980288;28;20218;-66
2022/03/08 03:12:57;;;;;;;7.85;4.82;;;0.50;99.90;;;0.58;nan;101332.56;5015713;28;20202;-66
2022/03/08 03:15:27;;;;;;;11.52;5.40;;;0.50;99.90;;;0.52;nan;101323.28;5013479;28;20229;-65
2022/03/08 03:17:55;;;;;;;7.80;4.93;;;0.40;99.90;;;0.61;nan;101319.69;5012690;28;20211;-67
2022/03/08 03:20:23;;;;;;;10.20;6.53;;;0.50;99.90;;;0.66;nan;101312.75;4995851;28;20198;-66
2022/03/08 03:22:50;;;;;;;11.00;6.07;;;0.60;99.90;;;0.64;nan;101322.16;4996079;28;20199;-65
2022/03/08 03:25:17;;;;;;;10.82;6.50;;;0.60;99.90;;;0.53;nan;101313.84;5027800;22;20227;-66
2022/03/08 03:27:45;;;;;;;11.68;5.60;;;0.50;99.90;;;0.51;nan;101318.19;5011976;28;20614;-66
2022/03/08 03:30:18;;;;;;;9.20;5.57;;;0.40;99.90;;;0.52;nan;101319.84;4979327;28;20207;-66
2022/03/08 03:32:45;;;;;;;9.43;6.25;;;0.40;99.90;;;0.47;nan;101316.56;4978997;28;20675;-66
2022/03/08 03:35:13;;;;;;;9.88;6.53;;;0.40;99.90;;;0.47;nan;101319.13;4991897;28;20234;-66
2022/03/08 03:37:41;;;;;;;11.05;6.15;;;0.50;99.90;;;0.45;nan;101320.84;4975629;28;20203;-66
2022/03/08 03:40:09;;;;;;;10.40;5.60;;;0.40;99.90;;;0.38;nan;101320.16;4960134;28;20203;-66
2022/03/08 03:42:36;;;;;;;7.05;4.75;;;0.30;99.90;;;0.30;nan;101316.84;4957482;28;20196;-66
2022/03/08 03:45:04;;;;;;;8.90;5.20;;;0.20;99.90;;;0.35;nan;101317.63;4963923;28;20247;-66
2022/03/08 03:47:31;;;;;;;6.63;5.13;;;0.30;99.90;;;0.38;nan;101306.47;4992736;28;20222;-66
2022/03/08 03:49:58;;;;;;;8.05;5.00;;;0.30;99.90;;;0.40;nan;101302.13;4992062;28;20632;-66
2022/03/08 03:52:25;;;;;;;10.13;6.30;;;0.30;99.90;;;0.45;nan;101305.44;4976550;28;20238;-66
2022/03/08 03:54:52;;;;;;;9.95;5.95;;;0.40;99.90;;;0.44;nan;101303.75;4974836;28;20231;-66
2022/03/08 03:57:19;;;;;;;11.05;5.88;;;0.40;99.90;;;0.47;nan;101303.72;4992949;28;20211;-66
2022/03/08 03:59:46;;;;;;;11.25;6.25;;;0.40;99.90;;;0.46;nan;101302.88;4992404;28;20208;-66
2022/03/08 04:02:14;;;;;;;6.75;4.38;;;0.40;99.90;;;0.41;nan;101289.25;4993543;28;20212;-66
2022/03/08 04:04:41;;;;;;;10.65;5.80;;;0.40;99.90;;;0.34;nan;101289.44;4975484;28;20227;-66
2022/03/08 04:07:08;;;;;;;8.32;5.00;;;0.20;99.90;;;0.37;nan;101291.91;4975934;28;20238;-66
2022/03/08 04:09:35;;;;;;;7.78;4.93;;;0.30;99.90;;;0.35;nan;101294.53;4992490;28;20234;-66
2022/03/08 04:12:03;;;;;;;10.00;5.55;;;0.30;99.90;;;0.35;nan;101288.53;4987175;28;20208;-66
2022/03/08 04:14:30;;;;;;;8.32;4.65;;;0.30;99.90;;;0.38;nan;101291.91;4972113;28;20258;-66
2022/03/08 04:16:57;;;;;;;9.30;4.82;;;0.30;99.90;;;0.33;nan;101288.56;4976046;28;20214;-66
2022/03/08 04:19:24;;;;;;;5.78;4.45;;;0.30;99.90;;;0.24;nan;101293.03;4975313;28;20691;-66
2022/03/08 04:21:51;;;;;;;11.30;6.18;;;0.20;99.90;;;0.11;nan;101292.41;4973923;28;20212;-66
2022/03/08 04:24:18;;;;;;;10.63;5.80;;;0.10;99.90;;;-0.05;nan;101288.47;4974671;28;20686;-66
2022/03/08 04:26:45;;;;;;;5.75;4.63;;;0.00;99.90;;;-0.01;nan;101295.22;4974086;28;20207;-66
2022/03/08 04:29:11;;;;;;;8.98;4.30;;;-0.10;99.90;;;-0.03;nan;101305.53;4976401;28;20568;-66
2022/03/08 04:31:38;;;;;;;11.63;7.47;;;-0.10;99.90;;;0.01;nan;101303.72;4992231;28;20207;-66
2022/03/08 04:34:05;;;;;;;12.52;6.70;;;-0.10;99.90;;;0.02;nan;101297.75;4974515;28;20227;-66
2022/03/08 04:36:32;;;;;;;7.30;4.80;;;0.00;99.90;;;0.10;nan;101305.28;4975050;28;20227;-67
2022/03/08 04:39:00;;;;;;;11.27;6.07;;;0.10;99.90;;;0.16;nan;101305.16;4974528;28;20234;-67
2022/03/08 04:41:28;;;;;;;9.90;6.20;;;0.10;99.90;;;0.19;nan;101305.13;4992151;28;20687;-67
2022/03/08 04:43:54;;;;;;;10.68;5.75;;;0.10;99.90;;;0.08;nan;101302.75;4988042;28;20204;-66
2022/03/08 04:46:22;;;;;;;6.05;4.88;;;0.00;99.90;;;0.12;nan;101300.97;4991357;28;20227;-66
2022/03/08 04:48:49;;;;;;;9.10;5.80;;;0.10;99.90;;;0.14;nan;101304.34;4992000;28;20220;-66
2022/03/08 04:51:16;;;;;;;6.57;4.20;;;0.10;99.90;;;0.03;nan;101304.53;4990939;28;20203;-67
2022/03/08 04:53:43;;;;;;;9.30;4.75;;;0.00;99.90;;;-0.03;nan;101302.09;4972066;28;20675;-66
2022/03/08 04:56:10;;;;;;;11.40;6.15;;;-0.10;99.90;;;-0.11;nan;101306.53;4967860;28;20307;-67
2022/03/08 04:58:37;;;;;;;6.03;3.83;;;-0.10;99.90;;;-0.14;nan;101304.84;4982385;28;20214;-66
2022/03/08 05:01:04;;;;;;;9.95;4.80;;;-0.20;99.90;;;-0.13;nan;101318.53;4972573;28;20207;-66
2022/03/08 05:03:31;;;;;;;5.63;4.22;;;-0.20;99.90;;;-0.18;nan;101317.75;4979264;28;20208;-66
2022/03/08 05:05:58;;;;;;;10.93;6.05;;;-0.20;99.90;;;-0.13;nan;101313.41;4991510;28;20223;-66
2022/03/08 05:08:25;;;;;;;11.27;6.95;;;-0.20;99.90;;;-0.19;nan;101304.06;4991483;28;20632;-66
2022/03/08 05:10:52;;;;;;;13.43;6.95;;;-0.20;99.90;;;-0.09;nan;101309.91;4970786;28;20255;-66
2022/03/08 05:13:19;;;;;;;13.02;7.38;;;-0.20;99.90;;;-0.19;nan;101304.06;4984866;28;20667;-66
2022/03/08 05:15:48;;;;;;;12.15;6.90;;;-0.20;99.90;;;-0.23;nan;101302.44;4970783;28;20212;-66
2022/03/08 05:18:17;;;;;;;7.50;5.45;;;-0.30;99.90;;;-0.20;nan;101299.00;4958336;28;20240;-66
2022/03/08 05:20:45;;;;;;;8.75;5.55;;;-0.20;99.90;;;-0.15;nan;101290.31;4972216;28;20199;-66
2022/03/08 05:23:12;;;;;;;10.07;5.93;;;-0.10;99.90;;;-0.16;nan;101287.78;4971505;28;20574;-66
2022/03/08 05:25:40;;;;;;;8.70;5.10;;;-0.20;99.90;;;-0.22;nan;101287.91;4953426;28;20482;-66
2022/03/08 05:28:07;;;;;;;9.63;5.03;;;-0.30;99.90;;;-0.23;nan;101292.19;4970761;28;20578;-66
2022/03/08 05:30:35;;;;;;;8.95;5.60;;;-0.30;99.90;;;-0.36;nan;101285.56;4990525;28;20204;-66
2022/03/08 05:33:02;;;;;;;8.63;5.15;;;-0.40;99.90;;;-0.31;nan;101285.50;4982781;28;20203;-66
2022/03/08 05:35:29;;;;;;;9.95;5.13;;;-0.40;99.90;;;-0.32;nan;101291.50;4973668;28;20251;-66
2022/03/08 05:37:56;;;;;;;8.57;4.40;;;-0.40;99.90;;;-0.30;nan;101285.47;4962999;28;20200;-67
2022/03/08 05:40:23;;;;;;;5.50;3.95;;;-0.40;99.90;;;-0.28;nan;101291.41;4973807;28;20230;-66
2022/03/08 05:42:50;;;;;;;5.63;3.17;;;-0.40;99.90;;;-0.28;nan;101282.91;4969281;28;20734;-66
2022/03/08 05:45:17;;;;;;;6.90;4.18;;;-0.30;99.90;;;-0.37;nan;101286.47;4976909;28;20226;-66
2022/03/08 05:47:44;;;;;;;8.07;4.28;;;-0.40;99.90;;;-0.38;nan;101286.47;4981908;28;20615;-67
2022/03/08 05:50:12;;;;;;;10.40;4.82;;;-0.40;99.90;;;-0.37;nan;101286.47;4973650;28;20208;-66
2022/03/08 05:52:39;;;;;;;10.52;5.50;;;-0.40;99.90;;;-0.38;nan;101282.19;4973746;28;20207;-66
2022/03/08 05:55:07;;;;;;;8.95;5.78;;;-0.40;99.90;;;-0.40;nan;101278.81;4972869;28;20737;-66
2022/03/08 05:57:34;;;;;;;7.90;4.60;;;-0.50;99.90;;;-0.35;nan;101276.16;4975311;28;20210;-66
2022/03/08 06:00:01;;;;;;;10.80;4.82;;;-0.40;99.90;;;-0.29;nan;101279.47;4991008;28;20207;-66
2022/03/08 06:02:28;;;;;;;8.95;4.82;;;-0.30;99.90;;;-0.25;nan;101281.09;4957341;28;20219;-66
2022/03/08 06:04:55;;;;;;;8.25;5.18;;;-0.30;99.90;;;-0.28;nan;101276.03;4971560;28;20230;-66
2022/03/08 06:07:22;;;;;;;11.73;6.03;;;-0.30;99.90;;;-0.18;nan;101282.72;4940140;28;20779;-66
2022/03/08 06:09:49;;;;;;;10.55;4.88;;;-0.20;99.90;;;-0.15;nan;101292.88;4990194;28;20606;-66
2022/03/08 06:12:16;;;;;;;7.10;4.78;;;-0.10;99.90;;;-0.04;nan;101292.69;4975881;28;20227;-67
2022/03/08 06:14:43;;;;;;;8.50;5.38;;;-0.10;99.90;;;0.14;nan;101301.78;4962655;28;20243;-67
2022/03/08 06:17:10;;;;;;;9.43;4.97;;;0.10;99.90;;;0.32;nan;101307.41;4949640;28;20210;-68
2022/03/08 06:19:37;;;;;;;5.88;4.40;;;0.40;99.90;;;0.56;nan;101316.34;4974483;28;20664;-68
2022/03/08 06:22:05;;;;;;;8.52;5.55;;;0.60;99.90;;;0.98;nan;101319.75;4983954;28;20211;-66
2022/03/08 06:24:32;;;;;;;11.30;6.82;;;1.20;99.90;;;1.20;nan;101316.66;4958280;28;20231;-66
2022/03/08 06:26:59;;;;;;;8.13;5.03;;;1.60;99.90;;;1.62;nan;101329.41;4978750;28;20204;-66
2022/03/08 06:29:26;;;;;;;8.63;5.60;;;2.00;99.90;;;2.31;nan;101330.16;4972493;28;20211;-67
2022/03/08 06:31:53;;;;;;;10.48;6.35;;;2.80;99.80;;;2.79;nan;101331.34;4962443;28;20642;-67
2022/03/08 06:34:20;;;;;;;8.27;5.15;;;3.30;97.90;;;3.43;nan;101335.41;4990612;28;20227;-67
2022/03/08 06:36:48;;;;;;;9.73;5.63;;;4.00;95.90;;;4.26;nan;101331.81;4990419;28;20203;-67
2022/03/08 06:39:15;;;;;;;9.32;5.50;;;4.90;93.70;;;4.85;nan;101334.81;4974309;28;20204;-67
2022/03/08 06:41:43;;;;;;;8.32;5.63;;;5.50;91.30;;;5.40;nan;101339.56;4988967;28;20204;-67
2022/03/08 06:44:11;;;;;;;10.75;6.05;;;6.10;86.80;;;6.01;nan;101337.94;4953175;28;20215;-67
2022/03/08 06:46:41;;;;;;;10.65;6.20;;;6.70;82.60;;;6.52;nan;101347.81;4963024;28;20680;-67
2022/03/08 06:49:09;;;;;;;8.82;5.65;;;7.40;77.40;;;7.05;nan;101347.09;4990824;28;20203;-67
2022/03/08 06:51:37;;;;;;;8.50;5.35;;;7.80;74.10;;;7.84;nan;101343.28;4989231;28;20211;-67
2022/03/08 06:54:08;;;;;;;7.72;4.72;;;8.70;69.60;;;8.60;nan;101348.09;4981297;28;20208;-67
2022/03/08 06:56:35;;;;;;;7.82;4.20;;;9.60;65.60;;;9.26;nan;101357.44;4970315;28;20200;-68
2022/03/08 06:59:03;;;;;;;8.40;5.85;;;10.30;61.70;;;9.78;nan;101354.53;4989994;28;20230;-68
2022/03/08 07:01:30;;;;;;;11.20;7.30;;;10.90;59.00;;;10.30;nan;101360.22;4956746;28;20207;-67
2022/03/08 07:03:58;;;;;;;10.77;7.07;;;11.40;57.00;;;10.54;nan;101354.34;4974559;28;20680;-67
2022/03/08 07:06:25;;;;;;;10.27;7.00;;;11.50;55.70;;;10.90;nan;101346.88;4973182;28;20661;-67
2022/03/08 07:08:53;;;;;;;10.90;7.37;;;11.90;54.00;;;11.27;nan;101357.63;4972510;28;20637;-68
2022/03/08 07:11:20;;;;;;;11.13;7.60;;;12.20;53.00;;;11.51;nan;101351.72;4972021;28;20634;-67
2022/03/08 07:13:48;;;;;;;14.03;8.30;;;12.40;51.90;;;11.72;nan;101352.13;4979033;28;20630;-68
2022/03/08 07:16:15;;;;;;;12.63;8.03;;;12.50;51.60;;;12.15;nan;101342.28;4970452;28;20717;-67
2022/03/08 07:18:42;;;;;;;12.27;7.93;;;12.80;50.80;;;12.80;nan;101340.38;4991097;28;20630;-69
2022/03/08 07:21:10;;;;;;;12.97;8.37;;;13.30;50.00;;;13.23;nan;101345.13;4992841;28;21027;-67
2022/03/08 07:23:36;;;;;;;13.73;8.50;;;13.80;48.70;;;13.45;nan;101333.94;4976221;28;20637;-67
2022/03/08 07:26:04;;;;;;;14.20;8.63;;;14.10;48.30;;;13.45;nan;101339.16;4973206;28;20675;-68
2022/03/08 07:28:31;;;;;;;14.27;9.00;;;14.20;47.90;;;13.78;nan;101355.03;4976319;28;20621;-68
2022/03/08 07:31:01;;;;;;;12.07;8.73;;;14.40;47.40;;;14.18;nan;101350.31;4976035;28;20642;-68
2022/03/08 07:33:29;;;;;;;16.83;9.60;;;14.70;46.60;;;14.38;nan;101347.00;4976453;28;20688;-68
2022/03/08 07:35:56;;;;;;;16.20;10.20;;;15.10;45.90;;;14.32;nan;101357.13;4994146;28;20685;-67
2022/03/08 07:38:23;;;;;;;19.40;9.50;;;15.30;45.30;;;14.50;nan;101361.00;4992865;28;20626;-67
2022/03/08 07:40:50;;;;;;;19.57;10.20;;;15.30;45.40;;;15.57;nan;101344.53;4975624;28;20638;-68
2022/03/08 07:43:18;;;;;;;16.93;9.93;;;16.10;45.10;;;15.57;nan;101347.16;4993088;28;20639;-69
2022/03/08 07:45:45;;;;;;;16.60;10.07;;;16.60;43.80;;;16.28;nan;101346.47;4981368;28;20670;-68
2022/03/08 07:48:12;;;;;;;11.27;8.83;;;16.80;43.70;;;16.30;nan;101355.06;4971163;28;20646;-69
2022/03/08 07:50:39;;;;;;;13.03;9.30;;;16.90;43.00;;;17.02;nan;101348.78;4972267;28;20638;-68
2022/03/08 07:53:06;;;;;;;13.43;9.47;;;17.60;41.70;;;17.16;nan;101344.09;4991203;28;20657;-68
2022/03/08 07:55:34;;;;;;;14.77;9.50;;;17.90;40.90;;;17.92;nan;101348.63;4958977;28;20682;-69
2022/03/08 07:58:04;;;;;;;13.30;9.37;;;18.40;40.40;;;18.70;nan;101353.66;4954843;28;20625;-68
2022/03/08 08:00:32;;;;;;;12.83;8.80;;;19.10;39.60;;;19.23;nan;101344.88;4979578;28;20623;-68
2022/03/08 08:03:00;;;;;;;13.00;8.87;;;19.80;38.80;;;19.98;nan;101347.09;4984722;28;20645;-68
2022/03/08 08:05:27;;;;;;;14.73;9.87;;;20.60;37.50;;;20.60;nan;101350.53;4966378;28;20651;-69
2022/03/08 08:07:54;;;;;;;13.70;9.63;;;21.50;36.50;;;21.30;nan;101358.16;4991875;28;21238;-68
2022/03/08 08:10:21;;;;;;;15.33;9.70;;;22.30;35.60;;;22.00;nan;101348.78;4975014;28;20641;-68
2022/03/08 08:12:48;;;;;;;13.50;9.70;;;23.00;34.50;;;22.44;nan;101357.22;4992146;28;20626;-69
2022/03/08 08:15:15;;;;;;;14.33;9.70;;;23.50;33.90;;;23.35;nan;101353.09;4991157;28;20670;-69
2022/03/08 08:17:43;;;;;;;16.47;10.97;;;24.20;33.10;;;23.25;nan;101338.31;4967506;28;20639;-68
2022/03/08 08:20:10;;;;;;;13.50;10.70;;;24.50;32.50;;;23.80;nan;101350.47;4968964;28;20644;-68
2022/03/08 08:22:38;;;;;;;14.77;11.60;;;25.00;32.10;;;23.81;nan;101344.09;4968661;28;20628;-68
2022/03/08 08:25:06;;;;;;;14.20;10.80;;;25.30;31.80;;;24.17;nan;101343.50;4952423;28;20701;-69
2022/03/08 08:27:34;;;;;;;11.30;10.10;;;25.50;31.60;;;24.65;nan;101343.00;4990940;28;20689;-68
2022/03/08 08:30:01;;;;;;;13.00;10.77;;;26.20;31.00;;;24.45;nan;101341.88;4982619;28;20658;-67
2022/03/08 08:32:28;;;;;;;11.77;9.40;;;26.20;30.60;;;24.94;nan;101350.16;4980444;28;20646;-68
2022/03/08 08:34:55;;;;;;;14.33;10.27;;;26.60;30.30;;;23.47;nan;101340.22;4978755;28;20667;-68
2022/03/08 08:37:22;;;;;;;12.57;9.77;;;26.10;30.10;;;25.14;nan;101336.06;4974044;28;20634;-68
2022/03/08 08:39:49;;;;;;;13.00;10.67;;;26.90;30.10;;;25.62;nan;101339.88;4983891;28;20627;-67
2022/03/08 08:42:16;;;;;;;16.00;10.10;;;27.50;29.50;;;26.05;nan;101341.50;4972466;28;20729;-68
2022/03/08 08:44:46;;;;;;;10.83;9.63;;;28.10;29.20;;;25.77;nan;101331.81;4982415;28;20657;-67
2022/03/08 08:47:13;;;;;;;14.80;11.07;;;28.10;28.90;;;25.99;nan;101342.28;4973504;28;21168;-67
2022/03/08 08:49:41;;;;;;;16.03;10.43;;;28.50;28.70;;;25.61;nan;101335.56;4972440;28;21189;-68
2022/03/08 08:52:08;;;;;;;16.23;10.30;;;28.60;28.40;;;25.96;nan;101345.31;4983858;28;20639;-68
2022/03/08 08:54:38;;;;;;;13.20;10.70;;;28.80;28.50;;;26.44;nan;101345.50;4972133;28;20662;-67
2022/03/08 08:57:05;;;;;;;13.03;11.13;;;29.00;28.50;;;26.71;nan;101348.16;4974031;28;20638;-68
2022/03/08 08:59:32;;;;;;;12.20;10.60;;;29.50;28.30;;;27.01;nan;101340.69;4991502;28;20672;-68
2022/03/08 09:01:59;;;;;;;15.10;10.70;;;29.90;28.10;;;28.18;nan;101340.09;4986375;28;20634;-68
2022/03/08 09:04:26;;;;;;;13.50;10.97;;;31.00;27.90;;;28.55;nan;101349.34;4987640;28;20629;-68
2022/03/08 09:06:53;;;;;;;13.30;11.73;;;31.80;27.70;;;29.08;nan;101350.00;4974435;28;20631;-68
2022/03/08 09:09:20;;;;;;;11.57;10.10;;;32.60;27.90;;;27.44;nan;101339.41;4975014;28;20634;-67
2022/03/08 09:11:47;;;;;;;11.47;10.27;;;31.20;27.40;;;29.31;nan;101338.75;4983403;28;20634;-67
2022/03/08 09:14:14;;;;;;;15.17;10.27;;;32.30;27.30;;;29.43;nan;101331.66;4963818;28;20631;-68
2022/03/08 09:16:42;;;;;;;12.03;9.57;;;33.00;27.10;;;30.56;nan;101332.16;4990050;28;20670;-68
2022/03/08 09:19:10;;;;;;;10.37;9.10;;;33.90;26.90;;;31.49;nan;101323.75;4991340;28;21201;-67
2022/03/08 09:21:38;;;;;;;11.73;10.53;;;35.10;26.60;;;31.93;nan;101318.66;4990846;28;20647;-66
2022/03/08 09:24:06;;;;;;;9.83;8.60;;;35.60;26.40;;;31.60;nan;101331.03;4974363;28;21206;-68
2022/03/08 09:26:33;;;;;;;13.50;9.87;;;35.70;26.20;;;32.35;nan;101321.25;5052545;23;20693;-67
2022/03/08 09:29:00;;;;;;;11.83;10.00;;;35.70;26.20;;;32.89;nan;101320.81;5013648;28;20699;-68
2022/03/08 09:31:27;;;;;;;13.60;10.30;;;36.50;26.20;;;33.29;nan;101320.78;5030580;28;20621;-68
2022/03/08 09:33:54;;;;;;;11.27;9.33;;;37.00;26.40;;;33.16;nan;101315.69;5012301;28;20983;-69
2022/03/08 09:36:21;;;;;;;12.97;10.03;;;36.70;25.70;;;32.85;nan;101316.94;5012772;28;20676;-66
2022/03/08 09:38:48;;;;;;;11.00;9.90;;;36.80;25.60;;;32.27;nan;101295.44;5031633;28;20636;-66
2022/03/08 09:41:15;;;;;;;9.57;8.60;;;36.50;25.50;;;33.04;nan;101307.63;5029343;28;20612;-65
2022/03/08 09:43:43;;;;;;;12.50;9.87;;;36.70;26.20;;;33.86;nan;101305.28;5012704;28;21207;-66
2022/03/08 09:46:11;;;;;;;12.87;9.07;;;37.60;25.60;;;34.50;nan;101307.31;4996520;28;20664;-65
2022/03/08 09:48:38;;;;;;;10.53;9.53;;;38.20;25.40;;;34.91;nan;101309.47;5020304;28;20653;-67
2022/03/08 09:51:06;;;;;;;10.00;8.80;;;38.90;25.20;;;35.03;nan;101295.81;5009861;28;20981;-70
2022/03/08 09:53:35;;;;;;;9.40;8.50;;;39.00;25.20;;;33.37;nan;101296.06;5010366;28;21243;-69
2022/03/08 09:56:05;;;;;;;3.13;2.80;;;38.60;24.50;;;23.98;nan;101272.03;5010423;28;20661;-69
2022/03/08 09:58:32;;;;;;;6.20;5.20;;;31.10;24.90;;;23.30;nan;101264.88;5010384;28;20630;-68
2022/03/08 10:01:04;;;;;;;5.07;4.37;;;27.40;26.60;;;23.12;nan;101261.69;5015353;28;20692;-67
2022/03/08 10:03:39;;;;;;;5.53;3.97;;;27.40;26.60;;;21.80;nan;101265.09;5010226;28;20621;-68
2022/03/08 10:06:10;;;;;;;1.73;1.53;;;26.40;26.50;;;19.35;nan;101258.22;4997876;28;20655;-67
2022/03/08 10:08:37;;;;;;;6.70;4.67;;;23.90;27.40;;;20.19;nan;101255.88;5029803;28;20617;-69
2022/03/08 10:11:09;;;;;;;5.87;3.70;;;22.80;28.40;;;21.11;nan;101252.28;5007557;28;20630;-69
2022/03/08 10:13:49;;;;;;;7.60;5.10;;;23.90;28.00;;;21.47;nan;101258.97;5007873;28;20633;-67
2022/03/08 10:16:28;;;;;;;5.67;3.67;;;24.70;27.60;;;21.10;nan;101250.63;5002233;28;20669;-71
2022/03/08 10:19:02;;;;;;;8.13;4.93;;;25.80;27.00;;;23.23;nan;101250.63;4970462;28;20618;-67
2022/03/08 10:21:47;;;;;;;6.80;4.70;;;26.00;27.30;;;22.05;nan;101244.66;5013267;28;20971;-70
2022/03/08 10:24:23;;;;;;;9.03;4.50;;;25.50;27.20;;;22.96;nan;101241.31;5012316;28;20636;-67
2022/03/08 10:27:09;;;;;;;6.10;4.60;;;26.10;27.00;;;22.95;nan;101239.69;4996185;28;20647;-68
2022/03/08 10:29:39;;;;;;;4.13;3.73;;;26.30;27.10;;;23.28;nan;101244.75;5023857;28;21192;-68
2022/03/08 10:32:20;;;;;;;5.33;4.83;;;26.90;26.70;;;21.04;nan;101229.22;5013365;28;20625;-66